Placido Castro, Brazil
Current Conditions -  °F | °C
As of 10:00 AM on Saturday 22 Nov 2014 (Local Time) from SBRB Reporting Station
Scattered Clouds Scattered Clouds  
Wind Chill: 82°   Ceiling: Unl
Heat Index: 87°   Visibility: 6mi
Dew Point: 72°   Wind: 6mph
Humidity: 70%   Direction: 330°NNW
Pressure: 29.88"   Gusts: NA
Location:  10.33°S, 67.18°W
Report Text: SBRB 221500Z 33005KT 9999 SCT023 SCT100 28/22 Q1012
Loading
Personal Weather Stations






























Interactive Weather Map New forecast layout! Learn more

10-Day Weather Forecast

Advertisements
Track Severe Weather on mobile